SBBRYZYX KWBCYMYX SOZZMAMX SYZZMAMX TBPBYMYX TNCCYMYX

TNCAYMYX TFFFYMYX TFFRYMYX TTPPYMYX EGZZMNAM

191000 SMJPYMYX

FTSM20 SMJP 191000

TAF SMJP 191000Z 1912/2012 06014KT 9999 SCT015 FEW018CB SCT025 TX32/1918Z TN22/2010Z TEMPO 1917/2021 5000 SHRA BECMG 1923/2001 02004KT FEW012 SCT030 TEMPO 2009/2011 2000 BR=

 

 

TAF SMZO 191000Z 1912/2012 06014KT 9999 SCT015 FEW018CB SCT025 TX32/1918Z TN24/2010Z TEMPO 1916/1921 5000 SHRA BECMG 1923/2001 02004KT FEW015 SCT030=

 

TW

APRIL 19, 2014